Time;durP1;ratioP1;P1;durP2;ratioP2;P2;SDS_P1;SDS_P2;PMS_P1;PMS_P2;Temp;Humidity;BMP_temperature;BMP_pressure;BME280_temperature;BME280_humidity;BME280_pressure;Samples;Min_cycle;Max_cycle;Signal;HPM_P1;HPM_P2
2022/11/16 00:02:16;;;;;;;10.60;6.70;;;10.90;99.90;;;;;;4990628;28;20038;-69
2022/11/16 00:04:41;;;;;;;11.02;6.97;;;10.90;99.90;;;;;;4985853;28;20089;-69
2022/11/16 00:07:07;;;;;;;9.80;7.07;;;11.00;99.90;;;;;;5010067;28;20069;-69
2022/11/16 00:09:33;;;;;;;10.95;7.00;;;11.00;99.90;;;;;;4991712;28;20038;-68
2022/11/16 00:12:01;;;;;;;10.05;7.10;;;11.00;99.90;;;;;;5024852;28;20057;-68
2022/11/16 00:14:29;;;;;;;10.80;6.80;;;11.00;99.90;;;;;;4993558;28;20677;-68
2022/11/16 00:16:55;;;;;;;9.95;7.45;;;11.00;99.90;;;;;;5011047;28;20092;-68
2022/11/16 00:19:22;;;;;;;11.02;7.40;;;11.00;99.90;;;;;;4995654;28;20045;-68
2022/11/16 00:21:47;;;;;;;12.32;7.88;;;10.90;99.90;;;;;;4994731;28;20087;-69
2022/11/16 00:24:14;;;;;;;11.90;7.50;;;10.90;99.90;;;;;;5010660;28;20037;-68
2022/11/16 00:26:40;;;;;;;11.10;7.38;;;10.90;99.90;;;;;;5013321;28;20084;-69
2022/11/16 00:29:12;;;;;;;9.05;6.68;;;10.90;99.90;;;;;;4999219;28;20038;-68
2022/11/16 00:31:37;;;;;;;10.55;6.63;;;11.00;99.90;;;;;;4995225;28;20487;-68
2022/11/16 00:34:03;;;;;;;10.73;7.43;;;11.00;99.90;;;;;;4995731;28;20046;-69
2022/11/16 00:36:28;;;;;;;10.60;7.10;;;11.00;99.90;;;;;;4981199;28;20050;-69
2022/11/16 00:38:54;;;;;;;10.02;7.25;;;11.00;99.90;;;;;;5015299;28;20046;-69
2022/11/16 00:41:20;;;;;;;11.25;7.15;;;11.00;99.90;;;;;;5014552;28;20046;-68
2022/11/16 00:43:45;;;;;;;9.65;6.57;;;11.00;99.90;;;;;;4995745;28;20407;-69
2022/11/16 00:46:11;;;;;;;9.70;6.65;;;11.00;99.90;;;;;;4979401;28;20057;-68
2022/11/16 00:48:36;;;;;;;10.32;6.35;;;11.10;99.90;;;;;;4995518;28;20483;-69
2022/11/16 00:51:02;;;;;;;10.55;7.32;;;11.10;99.90;;;;;;4979345;28;20100;-68
2022/11/16 00:53:27;;;;;;;9.00;6.43;;;11.10;99.90;;;;;;4979434;28;20042;-68
2022/11/16 00:55:53;;;;;;;9.57;6.30;;;11.20;99.90;;;;;;4979252;28;20038;-69
2022/11/16 00:58:18;;;;;;;11.75;6.47;;;11.20;99.90;;;;;;4995998;28;20431;-69
2022/11/16 01:00:44;;;;;;;11.82;7.60;;;11.20;99.90;;;;;;5015103;28;20037;-69
2022/11/16 01:03:10;;;;;;;9.32;6.35;;;11.20;99.90;;;;;;5014046;28;20099;-69
2022/11/16 01:05:35;;;;;;;9.07;6.18;;;11.20;99.90;;;;;;5014207;28;20046;-69
2022/11/16 01:08:01;;;;;;;9.95;6.20;;;11.30;99.90;;;;;;5015035;28;20379;-68
2022/11/16 01:10:27;;;;;;;9.32;6.63;;;11.30;99.90;;;;;;4998696;28;20470;-68
2022/11/16 01:12:54;;;;;;;10.27;6.30;;;11.40;99.90;;;;;;5013172;28;20120;-68
2022/11/16 01:15:22;;;;;;;9.65;6.88;;;11.30;99.90;;;;;;4997317;28;20076;-69
2022/11/16 01:17:47;;;;;;;10.40;6.93;;;11.20;99.90;;;;;;4998316;28;20045;-69
2022/11/16 01:20:25;;;;;;;9.85;6.72;;;11.20;99.90;;;;;;5014494;28;20030;-69
2022/11/16 01:22:51;;;;;;;11.07;6.63;;;11.20;99.90;;;;;;5013843;28;20038;-68
2022/11/16 01:25:17;;;;;;;11.73;6.93;;;11.20;99.90;;;;;;5013900;28;20463;-69
2022/11/16 01:27:43;;;;;;;10.25;6.55;;;11.20;99.90;;;;;;5014652;28;20034;-69
2022/11/16 01:30:11;;;;;;;9.20;6.03;;;11.20;99.90;;;;;;5014418;28;20125;-69
2022/11/16 01:32:37;;;;;;;11.40;6.57;;;11.20;99.90;;;;;;5013205;28;20133;-69
2022/11/16 01:35:03;;;;;;;10.73;6.60;;;11.20;99.90;;;;;;5013487;28;20117;-69
2022/11/16 01:37:29;;;;;;;13.77;7.53;;;11.20;99.90;;;;;;5013417;28;20399;-69
2022/11/16 01:39:55;;;;;;;10.70;6.18;;;11.20;99.90;;;;;;4997814;28;20037;-69
2022/11/16 01:42:26;;;;;;;10.32;6.45;;;11.30;99.90;;;;;;4993704;28;20557;-69
2022/11/16 01:44:57;;;;;;;11.20;6.70;;;11.20;99.90;;;;;;4990633;28;20489;-69
2022/11/16 01:47:23;;;;;;;9.25;5.97;;;11.20;99.90;;;;;;5014117;28;20049;-69
2022/11/16 01:50:07;;;;;;;11.20;6.07;;;11.10;99.90;;;;;;5014314;28;20029;-69
2022/11/16 01:52:37;;;;;;;9.25;5.90;;;11.30;99.90;;;;;;5013395;28;20555;-69
2022/11/16 01:55:03;;;;;;;9.15;6.35;;;11.30;99.90;;;;;;4994091;28;20061;-69
2022/11/16 01:57:36;;;;;;;9.02;6.15;;;11.20;99.90;;;;;;4993962;28;20052;-69
2022/11/16 02:00:05;;;;;;;9.85;5.70;;;11.20;99.90;;;;;;4997478;28;20048;-68
2022/11/16 02:02:31;;;;;;;10.90;6.38;;;11.20;99.90;;;;;;5013414;28;20125;-68
2022/11/16 02:04:58;;;;;;;10.95;6.60;;;11.30;99.90;;;;;;4996963;28;20124;-69
2022/11/16 02:07:24;;;;;;;9.10;6.15;;;11.20;99.90;;;;;;5013684;28;20033;-69
2022/11/16 02:10:19;;;;;;;10.20;6.43;;;11.10;99.90;;;;;;4997294;28;20096;-68
2022/11/16 02:12:59;;;;;;;9.15;6.72;;;11.20;99.90;;;;;;4994460;28;20050;-69
2022/11/16 02:15:50;;;;;;;9.27;5.78;;;11.10;99.90;;;;;;5016768;28;20548;-69
2022/11/16 02:18:36;;;;;;;10.40;6.43;;;11.10;99.90;;;;;;5012324;28;20050;-69
2022/11/16 02:21:25;;;;;;;10.25;5.90;;;11.20;99.90;;;;;;5013575;28;20289;-69
2022/11/16 02:24:26;;;;;;;9.05;5.75;;;11.20;99.90;;;;;;4987501;28;20041;-68
2022/11/16 02:27:14;;;;;;;7.70;3.95;;;11.20;99.90;;;;;;4985471;28;20049;-68
2022/11/16 02:29:54;;;;;;;11.05;5.57;;;11.30;99.90;;;;;;5013309;28;20042;-68
2022/11/16 02:32:25;;;;;;;9.05;5.60;;;11.30;99.90;;;;;;5012365;28;20049;-68
2022/11/16 02:34:57;;;;;;;11.13;6.30;;;11.30;99.90;;;;;;4996499;28;20429;-68
2022/11/16 02:37:24;;;;;;;9.30;5.40;;;11.30;99.90;;;;;;4993528;28;20088;-68
2022/11/16 02:39:56;;;;;;;10.57;5.38;;;11.30;99.90;;;;;;4993432;28;20281;-68
2022/11/16 02:42:29;;;;;;;8.20;5.15;;;11.30;99.90;;;;;;5002278;28;20041;-67
2022/11/16 02:44:56;;;;;;;10.63;5.53;;;11.30;99.90;;;;;;5011188;28;20070;-68
2022/11/16 02:47:26;;;;;;;8.82;5.22;;;11.30;99.90;;;;;;4979270;28;20046;-67
2022/11/16 02:50:01;;;;;;;9.43;5.55;;;11.30;99.90;;;;;;4994063;28;20038;-67
2022/11/16 02:52:28;;;;;;;8.68;5.57;;;11.30;99.90;;;;;;4996361;28;20038;-67
2022/11/16 02:54:53;;;;;;;10.18;6.10;;;11.30;99.90;;;;;;4992193;28;20046;-68
2022/11/16 02:57:31;;;;;;;10.13;5.80;;;11.30;99.90;;;;;;5011181;28;20125;-68
2022/11/16 02:59:58;;;;;;;9.15;5.00;;;11.20;99.90;;;;;;4992595;28;20041;-67
2022/11/16 03:02:32;;;;;;;8.90;4.95;;;11.40;99.90;;;;;;4994050;28;20121;-67
2022/11/16 03:05:04;;;;;;;10.15;5.75;;;11.30;99.90;;;;;;4995628;28;20046;-67
2022/11/16 03:07:35;;;;;;;10.30;5.47;;;11.30;99.90;;;;;;5012744;28;20065;-67
2022/11/16 03:10:01;;;;;;;8.40;5.20;;;11.30;99.90;;;;;;5011991;28;20088;-67
2022/11/16 03:12:30;;;;;;;8.57;5.18;;;11.30;99.90;;;;;;5012423;28;20046;-67
2022/11/16 03:15:04;;;;;;;9.32;5.47;;;11.20;99.90;;;;;;5012618;28;20056;-67
2022/11/16 03:17:31;;;;;;;8.82;5.15;;;11.20;99.90;;;;;;4993009;28;20506;-67
2022/11/16 03:20:03;;;;;;;10.07;5.78;;;11.30;99.90;;;;;;4976922;28;20054;-67
2022/11/16 03:22:38;;;;;;;12.30;6.28;;;11.30;99.90;;;;;;4986391;28;20042;-67
2022/11/16 03:25:06;;;;;;;9.35;6.22;;;11.20;99.90;;;;;;4994060;28;21504;-67
2022/11/16 03:27:37;;;;;;;8.48;5.70;;;11.20;99.90;;;;;;5012584;28;20042;-67
2022/11/16 03:30:14;;;;;;;9.43;6.18;;;11.20;99.90;;;;;;4995985;28;20042;-67
2022/11/16 03:33:05;;;;;;;8.50;6.20;;;11.20;99.90;;;;;;5011359;28;20092;-67
2022/11/16 03:35:39;;;;;;;8.77;4.80;;;11.20;99.90;;;;;;4992535;28;20088;-67
2022/11/16 03:38:07;;;;;;;9.45;5.35;;;11.30;99.90;;;;;;4995347;28;20045;-68
2022/11/16 03:40:35;;;;;;;9.52;6.03;;;11.40;99.90;;;;;;4994606;28;20092;-68
2022/11/16 03:43:02;;;;;;;8.95;6.25;;;11.40;99.90;;;;;;5011558;28;20533;-67
2022/11/16 03:45:29;;;;;;;9.23;5.97;;;11.30;99.90;;;;;;5011636;28;20586;-68
2022/11/16 03:47:54;;;;;;;9.95;6.43;;;11.30;99.90;;;;;;4992840;28;20121;-68
2022/11/16 03:50:20;;;;;;;10.07;6.57;;;11.20;99.90;;;;;;5012022;28;20128;-67
2022/11/16 03:52:46;;;;;;;10.02;6.30;;;11.30;99.90;;;;;;4991204;28;20479;-67
2022/11/16 03:55:11;;;;;;;7.85;4.45;;;11.30;99.90;;;;;;4997888;28;20042;-67
2022/11/16 03:57:37;;;;;;;10.02;5.80;;;11.40;99.90;;;;;;4977022;28;20445;-67
2022/11/16 04:00:04;;;;;;;13.68;6.70;;;11.60;99.90;;;;;;4994557;28;20042;-67
2022/11/16 04:02:30;;;;;;;11.30;5.85;;;11.60;99.90;;;;;;5011492;28;20568;-68
2022/11/16 04:24:30;;;;;;;9.40;6.05;;;11.60;99.90;;;;;;5015633;28;20054;-68
2022/11/16 04:29:51;;;;;;;9.60;6.38;;;11.30;99.90;;;;;;4995938;28;20058;-68
2022/11/16 04:37:48;;;;;;;9.32;6.68;;;11.40;99.90;;;;;;5015468;28;20081;-67
2022/11/16 04:40:28;;;;;;;9.10;5.95;;;11.40;99.90;;;;;;5015332;28;20045;-68
2022/11/16 04:42:56;;;;;;;9.77;6.32;;;11.40;99.90;;;;;;4995071;28;20042;-68
2022/11/16 04:48:08;;;;;;;10.45;6.03;;;11.30;99.90;;;;;;5012983;28;20038;-67
2022/11/16 04:50:34;;;;;;;10.00;6.60;;;11.30;99.90;;;;;;5014996;28;20482;-67
2022/11/16 04:52:59;;;;;;;10.23;7.13;;;11.30;99.90;;;;;;5014371;28;20125;-67
2022/11/16 04:55:25;;;;;;;9.70;6.70;;;11.30;99.90;;;;;;4998924;28;20034;-68
2022/11/16 04:57:51;;;;;;;9.70;6.05;;;11.20;99.90;;;;;;5014517;28;20041;-68
2022/11/16 05:00:17;;;;;;;8.52;6.13;;;11.30;99.90;;;;;;4998677;28;20089;-67
2022/11/16 05:02:43;;;;;;;10.73;7.22;;;11.50;99.90;;;;;;4997431;28;20050;-68
2022/11/16 05:05:09;;;;;;;9.48;6.10;;;11.40;99.90;;;;;;5012941;28;20387;-68
2022/11/16 05:07:34;;;;;;;10.00;6.65;;;11.40;99.90;;;;;;5010995;28;20410;-67
2022/11/16 05:10:02;;;;;;;10.90;7.85;;;11.40;99.90;;;;;;5005991;28;20062;-68
2022/11/16 05:12:28;;;;;;;10.40;6.93;;;11.30;99.90;;;;;;4995758;28;20041;-67
2022/11/16 05:14:54;;;;;;;9.40;6.57;;;11.20;99.90;;;;;;4991163;28;20372;-68
2022/11/16 05:17:21;;;;;;;9.60;6.60;;;11.20;99.90;;;;;;4978835;28;20046;-67
2022/11/16 05:22:31;;;;;;;10.43;6.70;;;11.50;99.90;;;;;;5013046;28;20046;-68
2022/11/16 05:24:57;;;;;;;9.60;6.35;;;11.50;99.90;;;;;;4997728;28;20125;-68
2022/11/16 05:27:28;;;;;;;8.80;6.18;;;11.50;99.90;;;;;;5012781;28;20088;-67
2022/11/16 05:29:54;;;;;;;10.00;6.13;;;11.50;99.90;;;;;;5012656;28;20585;-68
2022/11/16 05:32:20;;;;;;;8.52;6.15;;;11.50;99.90;;;;;;4997191;28;20129;-68
2022/11/16 05:34:47;;;;;;;9.35;6.55;;;11.50;99.90;;;;;;5012045;28;20069;-68
2022/11/16 05:37:14;;;;;;;10.02;6.68;;;11.50;99.90;;;;;;5013279;28;20033;-68
2022/11/16 05:39:40;;;;;;;9.57;6.55;;;11.50;99.90;;;;;;5012672;28;20061;-68
2022/11/16 05:42:06;;;;;;;9.45;6.50;;;11.50;99.90;;;;;;4991296;28;20038;-68
2022/11/16 05:44:32;;;;;;;9.48;6.72;;;11.40;99.90;;;;;;4994394;28;20110;-68
2022/11/16 05:46:59;;;;;;;8.98;6.60;;;11.50;99.90;;;;;;4978553;28;20038;-68
2022/11/16 05:49:25;;;;;;;8.93;6.25;;;11.50;99.90;;;;;;4994490;28;20030;-67
2022/11/16 05:51:51;;;;;;;9.20;6.75;;;11.50;99.90;;;;;;4994747;28;20077;-68
2022/11/16 05:54:18;;;;;;;9.73;6.68;;;11.50;99.90;;;;;;5004265;28;20090;-67
2022/11/16 05:56:45;;;;;;;8.30;5.70;;;11.50;99.90;;;;;;4994570;28;20038;-67
2022/11/16 05:59:16;;;;;;;8.55;6.32;;;11.50;99.90;;;;;;5010801;28;20050;-67
2022/11/16 06:01:42;;;;;;;8.73;6.10;;;11.60;99.90;;;;;;4977937;28;20038;-67
2022/11/16 06:04:08;;;;;;;10.70;7.35;;;11.60;99.90;;;;;;4977925;28;20185;-68
2022/11/16 06:06:34;;;;;;;9.75;7.65;;;11.60;99.90;;;;;;5012407;28;20121;-67
2022/11/16 06:08:59;;;;;;;9.85;7.22;;;11.50;99.90;;;;;;4988518;28;20117;-67
2022/11/16 06:11:26;;;;;;;11.05;8.45;;;11.50;99.90;;;;;;5012932;28;20041;-67
2022/11/16 06:13:51;;;;;;;10.98;7.80;;;11.50;99.90;;;;;;5012674;28;20038;-67
2022/11/16 06:16:17;;;;;;;10.35;7.68;;;11.40;99.90;;;;;;5012231;28;20050;-68
2022/11/16 06:18:46;;;;;;;11.38;7.75;;;11.40;99.90;;;;;;5011771;28;20049;-67
2022/11/16 06:21:13;;;;;;;11.18;7.78;;;11.40;99.90;;;;;;5012604;28;20081;-68
2022/11/16 06:23:39;;;;;;;11.07;8.27;;;11.40;99.90;;;;;;5011469;28;20046;-69
2022/11/16 06:26:05;;;;;;;11.25;8.63;;;11.40;99.90;;;;;;5013620;28;20044;-68
2022/11/16 06:28:31;;;;;;;11.55;7.45;;;11.40;99.90;;;;;;5012654;28;20397;-67
2022/11/16 06:30:57;;;;;;;10.93;7.82;;;11.40;99.90;;;;;;4996007;28;20045;-68
2022/11/16 06:33:23;;;;;;;12.00;8.55;;;11.50;99.90;;;;;;5012383;28;20548;-67
2022/11/16 06:35:48;;;;;;;11.15;8.60;;;11.40;99.90;;;;;;5010364;28;20113;-67
2022/11/16 06:38:17;;;;;;;12.10;8.38;;;11.30;99.90;;;;;;4981882;28;20104;-68
2022/11/16 06:40:51;;;;;;;10.82;7.95;;;11.30;99.90;;;;;;4996500;28;20513;-68
2022/11/16 06:43:17;;;;;;;10.98;7.75;;;11.30;99.90;;;;;;5012814;28;20070;-68
2022/11/16 06:45:46;;;;;;;10.95;8.13;;;11.30;99.90;;;;;;4990014;28;20093;-68
2022/11/16 06:48:12;;;;;;;10.73;7.60;;;11.40;99.90;;;;;;4990819;28;20045;-68
2022/11/16 06:50:37;;;;;;;12.05;8.32;;;11.50;99.90;;;;;;4993581;28;20042;-68
2022/11/16 06:53:03;;;;;;;10.55;7.88;;;11.40;99.90;;;;;;5003697;28;20125;-68
2022/11/16 06:55:28;;;;;;;10.93;8.07;;;11.40;99.90;;;;;;5010994;28;20037;-68
2022/11/16 06:57:54;;;;;;;10.90;8.48;;;11.30;99.90;;;;;;5011348;28;20117;-68
2022/11/16 07:00:20;;;;;;;10.82;8.32;;;11.30;99.90;;;;;;5011211;28;20100;-68
2022/11/16 07:02:46;;;;;;;11.02;7.85;;;11.30;99.90;;;;;;4991595;28;20042;-68
2022/11/16 07:05:11;;;;;;;10.48;7.95;;;11.30;99.90;;;;;;4992900;28;20120;-68
2022/11/16 07:07:37;;;;;;;10.80;8.32;;;11.30;99.90;;;;;;5009337;28;20034;-68
2022/11/16 07:10:03;;;;;;;10.70;8.32;;;11.30;99.90;;;;;;4978954;28;20030;-68
2022/11/16 07:12:28;;;;;;;10.85;7.88;;;11.20;99.90;;;;;;5011644;28;20072;-68
2022/11/16 07:14:54;;;;;;;10.27;7.88;;;11.20;99.90;;;;;;4994707;28;20078;-68
2022/11/16 07:17:19;;;;;;;9.98;7.57;;;11.20;99.90;;;;;;5010926;28;20046;-68
2022/11/16 07:19:45;;;;;;;10.02;7.50;;;11.30;99.90;;;;;;4995159;28;20053;-68
2022/11/16 07:22:11;;;;;;;9.55;6.90;;;11.40;99.90;;;;;;5011650;28;20050;-68
2022/11/16 07:24:36;;;;;;;11.45;7.30;;;11.40;99.90;;;;;;4995058;28;20050;-68
2022/11/16 07:27:02;;;;;;;10.82;7.35;;;11.40;99.90;;;;;;5012164;28;20038;-68
2022/11/16 07:29:28;;;;;;;10.10;7.72;;;11.40;99.90;;;;;;4994629;28;20061;-68
2022/11/16 07:31:54;;;;;;;9.60;7.22;;;11.30;99.90;;;;;;4993259;28;20045;-68
2022/11/16 07:34:19;;;;;;;10.77;7.90;;;11.20;99.90;;;;;;5010026;28;20038;-68
2022/11/16 07:36:45;;;;;;;10.55;8.10;;;11.20;99.90;;;;;;5009359;28;20120;-68
2022/11/16 07:39:10;;;;;;;11.52;8.02;;;11.20;99.90;;;;;;5009865;28;20409;-68
2022/11/16 07:41:41;;;;;;;10.25;8.27;;;11.20;99.90;;;;;;5009931;28;20128;-68
2022/11/16 07:44:07;;;;;;;10.55;8.23;;;11.20;99.90;;;;;;5007705;28;20069;-68
2022/11/16 07:46:33;;;;;;;10.93;7.38;;;11.20;99.90;;;;;;5007843;28;20030;-68
2022/11/16 07:48:59;;;;;;;10.57;7.80;;;11.30;99.90;;;;;;5008621;28;20449;-68
2022/11/16 07:51:24;;;;;;;10.85;6.90;;;11.20;99.90;;;;;;5000068;28;20046;-70
2022/11/16 07:53:54;;;;;;;10.77;7.53;;;11.30;99.90;;;;;;5011085;28;20034;-69
2022/11/16 07:56:21;;;;;;;11.30;7.80;;;11.30;99.90;;;;;;5011094;28;20099;-69
2022/11/16 07:58:46;;;;;;;10.50;7.95;;;11.40;99.90;;;;;;5009590;28;20037;-69
2022/11/16 08:01:13;;;;;;;11.13;8.40;;;11.40;99.90;;;;;;4991719;28;20454;-69
2022/11/16 08:03:40;;;;;;;10.90;8.02;;;11.40;99.90;;;;;;4990906;28;20062;-69
2022/11/16 08:06:27;;;;;;;10.10;7.15;;;11.40;99.90;;;;;;5010801;28;20042;-69
2022/11/16 08:08:52;;;;;;;11.63;8.27;;;11.40;99.90;;;;;;5008805;28;20120;-70
2022/11/16 08:11:18;;;;;;;11.63;8.20;;;11.40;99.90;;;;;;5010441;28;20152;-70
2022/11/16 08:13:44;;;;;;;10.43;8.05;;;11.30;99.90;;;;;;4991219;28;20096;-69
2022/11/16 08:16:16;;;;;;;12.43;7.40;;;11.20;99.90;;;;;;5002608;28;20080;-70
2022/11/16 08:18:41;;;;;;;9.75;6.90;;;11.40;99.90;;;;;;5009856;28;20100;-69
2022/11/16 08:21:09;;;;;;;9.65;7.35;;;11.50;99.90;;;;;;5011662;28;20030;-69
2022/11/16 08:23:35;;;;;;;10.05;7.60;;;11.50;99.90;;;;;;4995048;28;20434;-69
2022/11/16 08:26:09;;;;;;;10.80;7.50;;;11.40;99.90;;;;;;4991824;28;20091;-69
2022/11/16 08:28:36;;;;;;;10.18;7.72;;;11.30;99.90;;;;;;4994672;28;20065;-69
2022/11/16 08:31:13;;;;;;;9.60;7.32;;;11.30;99.90;;;;;;4995662;28;20046;-69
2022/11/16 08:33:39;;;;;;;9.10;6.53;;;11.40;99.90;;;;;;5010188;28;20045;-69
2022/11/16 08:36:06;;;;;;;10.90;7.00;;;11.40;99.90;;;;;;5011883;28;20548;-69
2022/11/16 08:38:32;;;;;;;9.07;6.60;;;11.40;99.90;;;;;;5011243;28;20092;-69
2022/11/16 08:40:58;;;;;;;8.90;5.97;;;11.50;99.90;;;;;;4994346;28;20038;-69
2022/11/16 08:43:24;;;;;;;9.15;5.85;;;11.50;99.90;;;;;;4994698;28;20030;-69
2022/11/16 08:45:50;;;;;;;10.45;6.05;;;11.50;99.90;;;;;;4996041;28;20563;-68
2022/11/16 08:48:15;;;;;;;9.95;5.50;;;11.40;99.90;;;;;;4998063;28;20157;-68
2022/11/16 08:50:41;;;;;;;8.77;5.90;;;11.40;99.90;;;;;;4994220;28;20499;-68
2022/11/16 08:53:06;;;;;;;9.85;6.10;;;11.30;99.90;;;;;;4980291;28;20041;-68
2022/11/16 08:55:32;;;;;;;8.85;6.10;;;11.30;99.90;;;;;;4998794;28;20375;-68
2022/11/16 08:57:58;;;;;;;8.77;6.38;;;11.30;99.90;;;;;;4996662;28;20112;-68
2022/11/16 09:00:24;;;;;;;11.45;6.78;;;11.30;99.90;;;;;;5014090;28;20042;-68
2022/11/16 09:02:49;;;;;;;9.50;7.00;;;11.20;99.90;;;;;;5013827;28;20451;-68
2022/11/16 09:05:15;;;;;;;10.27;7.60;;;11.20;99.90;;;;;;5012374;28;20045;-68
2022/11/16 09:07:43;;;;;;;9.63;7.22;;;11.30;99.90;;;;;;5013339;28;20038;-68
2022/11/16 09:10:09;;;;;;;12.10;7.03;;;11.20;99.90;;;;;;5013864;28;20512;-68
2022/11/16 09:12:35;;;;;;;9.30;6.85;;;11.30;99.90;;;;;;5013717;28;20045;-68
2022/11/16 09:15:01;;;;;;;10.60;7.80;;;11.30;99.90;;;;;;5013928;28;20453;-68
2022/11/16 09:17:27;;;;;;;9.93;6.97;;;11.40;99.90;;;;;;4993774;28;20042;-68
2022/11/16 09:19:52;;;;;;;11.50;7.63;;;11.50;99.90;;;;;;5003823;28;20080;-68
2022/11/16 09:22:18;;;;;;;11.60;7.78;;;11.50;99.90;;;;;;5012752;28;20042;-68
2022/11/16 09:24:44;;;;;;;10.13;7.60;;;11.50;99.90;;;;;;5013574;28;20038;-68
2022/11/16 09:27:09;;;;;;;10.55;7.68;;;11.50;99.90;;;;;;5012663;28;20049;-68
2022/11/16 09:29:35;;;;;;;10.63;7.95;;;11.60;99.90;;;;;;5014093;28;20033;-68
2022/11/16 09:32:01;;;;;;;11.40;8.05;;;11.60;99.90;;;;;;5014366;28;20041;-68
2022/11/16 09:34:27;;;;;;;10.52;8.18;;;11.60;99.90;;;;;;5013341;28;20096;-68
2022/11/16 09:36:53;;;;;;;10.70;8.10;;;11.60;99.90;;;;;;4996624;28;20513;-68
2022/11/16 09:39:19;;;;;;;12.18;8.63;;;11.70;99.90;;;;;;5011850;28;20101;-68
2022/11/16 09:42:00;;;;;;;11.35;8.95;;;11.70;99.90;;;;;;5012977;28;20482;-68
2022/11/16 09:44:42;;;;;;;13.65;10.57;;;11.70;99.90;;;;;;4997114;28;20045;-68
2022/11/16 09:47:15;;;;;;;12.15;9.32;;;11.60;99.90;;;;;;5008939;28;20065;-68
2022/11/16 09:49:46;;;;;;;11.85;8.90;;;11.70;99.90;;;;;;4996043;28;20031;-68
2022/11/16 09:52:33;;;;;;;11.60;9.10;;;11.70;99.90;;;;;;4996846;28;20042;-68
2022/11/16 09:55:05;;;;;;;12.07;9.52;;;11.80;99.90;;;;;;5013262;28;20052;-68
2022/11/16 09:57:35;;;;;;;12.77;10.43;;;11.80;99.90;;;;;;5012466;28;20441;-68
2022/11/16 10:00:11;;;;;;;12.98;11.10;;;11.80;99.90;;;;;;5012502;28;20034;-68
2022/11/16 10:02:44;;;;;;;14.68;11.88;;;11.80;99.90;;;;;;4995574;28;20045;-68
2022/11/16 10:05:21;;;;;;;12.98;10.85;;;11.80;99.90;;;;;;4993605;28;20137;-68
2022/11/16 10:08:09;;;;;;;13.15;11.75;;;11.90;99.90;;;;;;4986468;28;20125;-68
2022/11/16 10:10:38;;;;;;;14.43;12.93;;;11.80;99.90;;;;;;4992993;28;20077;-68
2022/11/16 10:13:21;;;;;;;14.45;12.93;;;11.90;99.90;;;;;;4981076;28;20030;-68
2022/11/16 10:16:14;;;;;;;13.30;11.45;;;11.80;99.90;;;;;;5003351;28;20038;-68
2022/11/16 10:18:57;;;;;;;14.43;12.85;;;11.80;99.90;;;;;;4995241;28;20175;-68
2022/11/16 10:21:38;;;;;;;12.75;10.82;;;11.80;99.90;;;;;;4997166;28;20065;-68
2022/11/16 10:24:19;;;;;;;14.30;11.15;;;11.80;99.90;;;;;;5012637;28;20042;-68
2022/11/16 10:27:13;;;;;;;13.75;11.02;;;11.70;99.90;;;;;;4997338;28;20064;-68
2022/11/16 10:29:45;;;;;;;13.57;11.18;;;11.70;99.90;;;;;;5012197;28;20042;-68
2022/11/16 10:32:29;;;;;;;16.70;12.18;;;11.80;99.90;;;;;;5000693;28;20395;-68
2022/11/16 10:35:07;;;;;;;14.50;10.77;;;11.90;99.90;;;;;;5004837;28;20100;-68
2022/11/16 10:37:36;;;;;;;15.50;11.35;;;11.90;99.90;;;;;;4997000;28;20466;-68
2022/11/16 10:40:15;;;;;;;14.32;11.38;;;11.90;99.90;;;;;;5012364;28;20037;-68
2022/11/16 10:42:41;;;;;;;14.68;10.85;;;11.90;99.90;;;;;;4995181;28;20042;-68
2022/11/16 10:45:10;;;;;;;15.82;11.30;;;12.00;99.90;;;;;;4996504;28;20038;-68
2022/11/16 10:47:45;;;;;;;14.13;11.27;;;12.00;99.90;;;;;;5011369;28;20042;-68
2022/11/16 10:50:39;;;;;;;15.32;10.88;;;12.00;99.90;;;;;;5010414;28;20498;-68
2022/11/16 10:53:10;;;;;;;13.82;10.63;;;12.00;99.90;;;;;;5013199;28;20038;-68
2022/11/16 10:55:36;;;;;;;14.80;10.30;;;12.10;99.90;;;;;;5011393;28;20087;-68
2022/11/16 10:58:03;;;;;;;16.00;10.27;;;12.20;99.90;;;;;;5012153;28;20038;-68
2022/11/16 11:00:33;;;;;;;12.75;9.85;;;12.30;99.90;;;;;;4992048;28;20053;-68
2022/11/16 11:02:59;;;;;;;13.27;9.10;;;12.30;99.90;;;;;;5005264;28;20058;-68
2022/11/16 11:05:25;;;;;;;12.57;8.43;;;12.40;99.90;;;;;;5009979;28;20064;-68
2022/11/16 11:08:03;;;;;;;13.50;9.50;;;12.40;99.90;;;;;;4995821;28;20433;-67
2022/11/16 11:10:33;;;;;;;12.93;7.78;;;12.40;99.90;;;;;;5011510;28;20551;-68
2022/11/16 11:13:10;;;;;;;13.73;7.63;;;12.40;99.90;;;;;;4995430;28;20049;-68
2022/11/16 11:15:38;;;;;;;11.13;7.63;;;12.40;99.90;;;;;;4995772;28;20046;-68
2022/11/16 11:18:25;;;;;;;14.65;8.70;;;12.40;99.90;;;;;;5007090;28;20041;-68
2022/11/16 11:21:16;;;;;;;13.50;7.85;;;12.30;99.90;;;;;;5011741;28;20560;-73
2022/11/16 11:23:51;;;;;;;12.40;7.85;;;12.30;99.90;;;;;;4993009;28;20045;-74
2022/11/16 11:26:28;;;;;;;12.85;8.30;;;12.20;99.90;;;;;;5007472;28;20042;-67
2022/11/16 11:28:55;;;;;;;13.02;7.70;;;12.20;99.90;;;;;;5008687;28;20532;-67
2022/11/16 11:31:37;;;;;;;12.75;7.55;;;12.10;99.90;;;;;;5010829;28;20084;-66
2022/11/16 11:34:08;;;;;;;12.10;6.50;;;12.10;99.90;;;;;;4994532;28;20482;-67
2022/11/16 11:36:42;;;;;;;9.57;4.88;;;12.10;99.90;;;;;;5012542;28;20080;-67
2022/11/16 11:39:11;;;;;;;8.73;4.75;;;12.10;99.90;;;;;;5009319;28;20069;-67
2022/11/16 11:41:42;;;;;;;9.60;4.40;;;12.10;99.90;;;;;;4997119;28;20472;-66
2022/11/16 11:44:16;;;;;;;10.32;4.55;;;12.00;99.90;;;;;;4994169;28;20045;-66
2022/11/16 11:46:50;;;;;;;8.23;4.03;;;12.00;99.90;;;;;;5009454;28;20037;-67
2022/11/16 11:49:38;;;;;;;9.35;4.20;;;12.10;99.90;;;;;;4995722;28;20128;-67
2022/11/16 11:52:16;;;;;;;8.85;4.00;;;12.10;99.90;;;;;;4995045;28;20124;-67
2022/11/16 11:54:48;;;;;;;7.13;3.80;;;12.10;99.90;;;;;;5010563;28;20041;-67
2022/11/16 11:57:19;;;;;;;11.52;4.38;;;12.30;99.90;;;;;;5011379;28;20558;-67
2022/11/16 11:59:45;;;;;;;10.93;4.00;;;12.30;99.90;;;;;;4994969;28;20077;-67
2022/11/16 12:02:47;;;;;;;9.00;3.85;;;12.30;99.90;;;;;;5011950;28;20304;-67
2022/11/16 12:05:18;;;;;;;12.18;4.03;;;12.30;99.90;;;;;;4993342;28;20103;-66
2022/11/16 12:08:16;;;;;;;9.48;3.28;;;12.30;99.90;;;;;;5018227;28;20042;-67
2022/11/16 12:11:08;;;;;;;8.32;3.67;;;12.20;99.90;;;;;;4994126;28;20487;-67
2022/11/16 12:13:57;;;;;;;8.38;2.90;;;12.20;99.90;;;;;;5005310;28;20180;-66
2022/11/16 12:17:00;;;;;;;9.48;3.45;;;12.40;99.90;;;;;;5001000;28;20034;-67
2022/11/16 12:19:38;;;;;;;6.80;2.90;;;12.50;99.90;;;;;;4993777;28;20046;-67
2022/11/16 12:22:23;;;;;;;8.98;2.70;;;12.50;99.90;;;;;;5013703;28;20049;-67
2022/11/16 12:24:57;;;;;;;8.27;3.33;;;12.50;99.90;;;;;;5013414;28;20038;-67
2022/11/16 12:27:30;;;;;;;12.10;3.10;;;12.40;99.90;;;;;;5005882;28;20042;-67
2022/11/16 12:30:10;;;;;;;7.75;2.90;;;12.40;99.90;;;;;;5011562;28;20037;-67
2022/11/16 12:32:59;;;;;;;7.28;2.85;;;12.40;99.90;;;;;;5011436;28;20038;-67
2022/11/16 12:36:01;;;;;;;9.68;2.75;;;12.40;99.90;;;;;;4999976;28;20042;-67
2022/11/16 12:38:44;;;;;;;11.18;2.88;;;12.40;99.90;;;;;;4995991;28;20046;-67
2022/11/16 12:41:30;;;;;;;8.98;2.67;;;12.40;99.90;;;;;;4995494;28;20038;-67
2022/11/16 12:44:00;;;;;;;6.75;2.67;;;12.30;99.90;;;;;;5009074;28;20041;-67
2022/11/16 12:46:59;;;;;;;7.75;2.10;;;12.40;99.90;;;;;;4998894;28;20084;-67
2022/11/16 12:49:41;;;;;;;9.68;2.28;;;12.40;99.90;;;;;;5014284;28;20046;-67
2022/11/16 12:52:16;;;;;;;;;;;12.40;99.90;;;;;;5019090;28;20117;-67
2022/11/16 12:54:56;;;;;;;7.80;2.25;;;12.40;99.90;;;;;;4998793;28;19924;-67
2022/11/16 12:57:43;;;;;;;8.68;2.47;;;12.40;99.90;;;;;;4992810;28;20398;-67
2022/11/16 13:00:12;;;;;;;7.35;2.20;;;12.40;99.90;;;;;;4991153;28;20057;-67
2022/11/16 13:02:56;;;;;;;6.95;2.28;;;12.40;99.90;;;;;;5014192;28;20048;-68
2022/11/16 13:05:35;;;;;;;11.90;2.53;;;12.40;99.90;;;;;;4998580;28;20049;-67
2022/11/16 13:08:06;;;;;;;9.75;2.30;;;12.40;99.90;;;;;;4996645;28;20084;-67
2022/11/16 13:10:41;;;;;;;9.52;1.98;;;12.40;99.90;;;;;;5014680;28;20069;-67
2022/11/16 13:13:18;;;;;;;8.75;2.10;;;12.40;99.90;;;;;;5013652;28;20052;-67
2022/11/16 13:15:46;;;;;;;9.73;2.10;;;12.40;99.90;;;;;;5014515;28;20092;-67
2022/11/16 13:18:16;;;;;;;10.57;2.25;;;12.30;99.90;;;;;;5014574;28;20096;-67
2022/11/16 13:21:04;;;;;;;9.05;2.05;;;12.30;99.90;;;;;;5031030;28;20089;-67
2022/11/16 13:23:29;;;;;;;10.93;2.25;;;12.30;99.90;;;;;;5008930;28;20046;-67
2022/11/16 13:26:09;;;;;;;10.25;2.00;;;12.30;99.90;;;;;;4994596;28;20042;-67
2022/11/16 13:28:53;;;;;;;7.55;1.92;;;12.30;99.90;;;;;;5003657;28;20556;-67
2022/11/16 13:31:48;;;;;;;10.77;3.10;;;12.40;99.90;;;;;;5012154;28;20081;-67
2022/11/16 13:34:30;;;;;;;10.60;2.47;;;12.30;99.90;;;;;;5010536;28;20061;-67